Time;durP1;ratioP1;P1;durP2;ratioP2;P2;SDS_P1;SDS_P2;PMS_P1;PMS_P2;Temp;Humidity;BMP_temperature;BMP_pressure;BME280_temperature;BME280_humidity;BME280_pressure;Samples;Min_cycle;Max_cycle;Signal;HPM_P1;HPM_P2
2022/09/21 00:01:51;;;;;;;1.15;0.98;;;19.30;45.60;;;;;;5046770;28;45186;-75
2022/09/21 00:04:19;;;;;;;1.40;1.20;;;19.30;45.60;;;;;;5046311;28;46690;-75
2022/09/21 00:06:45;;;;;;;1.35;1.25;;;19.30;45.60;;;;;;5046397;28;45433;-75
2022/09/21 00:09:12;;;;;;;1.17;0.90;;;19.30;45.70;;;;;;5046303;28;45317;-74
2022/09/21 00:11:39;;;;;;;1.35;1.00;;;19.30;45.70;;;;;;5046142;28;45263;-75
2022/09/21 00:14:09;;;;;;;1.70;1.20;;;19.30;45.70;;;;;;5045711;28;46423;-74
2022/09/21 00:16:36;;;;;;;2.90;1.05;;;19.20;45.60;;;;;;5046315;28;45291;-74
2022/09/21 00:19:03;;;;;;;1.05;0.95;;;19.20;45.70;;;;;;5046392;28;45259;-75
2022/09/21 00:21:29;;;;;;;1.17;1.15;;;19.20;45.60;;;;;;5048405;28;45263;-74
2022/09/21 00:23:58;;;;;;;1.98;1.10;;;19.20;45.70;;;;;;5066114;28;46405;-75
2022/09/21 00:26:25;;;;;;;1.17;1.10;;;19.20;45.80;;;;;;5066214;28;45316;-74
2022/09/21 00:28:53;;;;;;;1.10;1.00;;;19.20;45.80;;;;;;5066246;28;45314;-74
2022/09/21 00:31:22;;;;;;;3.00;0.80;;;19.20;45.80;;;;;;5066362;28;45183;-73
2022/09/21 00:33:50;;;;;;;1.35;1.08;;;19.10;45.80;;;;;;5065277;28;45536;-75
2022/09/21 00:36:17;;;;;;;1.50;1.20;;;19.10;45.80;;;;;;5052849;28;45485;-75
2022/09/21 00:38:44;;;;;;;1.40;1.30;;;19.10;45.90;;;;;;5043463;28;45218;-75
2022/09/21 00:41:11;;;;;;;1.75;1.15;;;19.10;45.90;;;;;;5046154;28;45583;-76
2022/09/21 00:43:40;;;;;;;1.65;1.20;;;19.10;45.90;;;;;;5045870;28;45453;-75
2022/09/21 00:46:13;;;;;;;1.00;1.00;;;19.10;45.90;;;;;;5045856;28;45343;-75
2022/09/21 00:48:42;;;;;;;0.98;0.90;;;19.00;46.00;;;;;;5045919;28;45376;-75
2022/09/21 00:51:08;;;;;;;1.38;1.08;;;19.00;45.90;;;;;;5046171;28;45241;-75
2022/09/21 00:53:35;;;;;;;0.98;0.93;;;19.00;46.00;;;;;;5045660;28;46540;-75
2022/09/21 00:56:02;;;;;;;1.60;1.00;;;19.00;46.60;;;;;;5045760;28;45191;-76
2022/09/21 00:58:31;;;;;;;2.20;1.00;;;19.00;46.00;;;;;;5045922;28;45304;-75
2022/09/21 01:00:58;;;;;;;1.95;0.98;;;18.90;46.00;;;;;;5045825;28;45289;-75
2022/09/21 01:03:25;;;;;;;1.73;1.08;;;18.90;46.00;;;;;;5045505;28;45189;-76
2022/09/21 01:05:53;;;;;;;1.42;1.00;;;18.90;46.20;;;;;;5045394;28;45162;-75
2022/09/21 01:08:20;;;;;;;1.23;1.00;;;18.90;46.10;;;;;;5045752;28;45266;-76
2022/09/21 01:10:57;;;;;;;1.08;1.00;;;18.90;46.10;;;;;;5045560;28;45495;-76
2022/09/21 01:13:31;;;;;;;1.02;1.00;;;18.90;46.20;;;;;;5045422;28;47567;-76
2022/09/21 01:16:00;;;;;;;1.33;0.90;;;18.80;46.10;;;;;;5045427;28;45278;-75
2022/09/21 01:18:30;;;;;;;1.08;0.90;;;18.80;46.10;;;;;;5045600;28;45233;-75
2022/09/21 01:21:20;;;;;;;1.40;1.02;;;18.80;46.20;;;;;;5045715;28;44771;-75
2022/09/21 01:24:13;;;;;;;1.02;0.93;;;18.80;46.20;;;;;;5025235;28;46735;-75
2022/09/21 01:27:02;;;;;;;1.40;0.80;;;18.80;46.20;;;;;;5028715;28;45342;-74
2022/09/21 01:29:31;;;;;;;1.02;0.93;;;18.80;46.30;;;;;;5028804;28;45337;-74
2022/09/21 01:32:00;;;;;;;1.08;1.00;;;18.70;46.10;;;;;;5028923;28;45367;-74
2022/09/21 01:34:30;;;;;;;1.20;1.00;;;18.70;46.20;;;;;;5028490;28;45228;-74
2022/09/21 01:36:58;;;;;;;0.90;0.90;;;18.70;46.30;;;;;;5028606;28;45230;-74
2022/09/21 01:39:25;;;;;;;1.10;1.00;;;18.70;46.30;;;;;;5028383;28;45315;-74
2022/09/21 01:41:53;;;;;;;0.80;0.80;;;18.70;46.20;;;;;;5028763;28;45195;-74
2022/09/21 01:44:21;;;;;;;1.08;0.90;;;18.60;46.30;;;;;;5028212;28;46556;-74
2022/09/21 01:46:49;;;;;;;1.73;1.20;;;18.70;46.30;;;;;;5028402;28;45344;-74
2022/09/21 01:49:17;;;;;;;1.83;1.10;;;18.60;46.30;;;;;;5028414;28;45197;-74
2022/09/21 01:51:46;;;;;;;1.85;0.93;;;18.60;46.30;;;;;;5027805;28;45337;-74
2022/09/21 01:54:14;;;;;;;1.20;1.10;;;18.60;46.30;;;;;;5027729;28;47312;-74
2022/09/21 01:56:43;;;;;;;1.50;1.23;;;18.60;46.40;;;;;;5028201;28;45224;-76
2022/09/21 01:59:11;;;;;;;1.27;0.90;;;18.60;46.40;;;;;;5028351;28;45329;-75
2022/09/21 02:01:42;;;;;;;1.60;1.10;;;18.60;46.50;;;;;;5028598;28;45255;-74
2022/09/21 02:04:11;;;;;;;1.35;1.02;;;18.50;46.40;;;;;;5028033;28;47173;-74
2022/09/21 02:06:38;;;;;;;1.38;0.95;;;18.50;46.40;;;;;;5027943;28;45336;-75
2022/09/21 02:09:05;;;;;;;0.85;0.85;;;18.50;46.40;;;;;;5028285;28;45187;-75
2022/09/21 02:11:32;;;;;;;0.82;0.82;;;18.50;46.50;;;;;;5027920;28;45187;-75
2022/09/21 02:13:59;;;;;;;1.10;1.00;;;18.50;46.50;;;;;;5027766;28;45216;-75
2022/09/21 02:16:32;;;;;;;2.20;0.93;;;18.50;46.50;;;;;;5027905;28;45291;-74
2022/09/21 02:19:09;;;;;;;0.80;0.80;;;18.40;46.50;;;;;;5028038;28;45189;-75
2022/09/21 02:21:43;;;;;;;0.85;0.85;;;18.40;47.10;;;;;;5033965;28;45295;-74
2022/09/21 02:24:13;;;;;;;1.48;0.98;;;18.50;46.50;;;;;;5065255;28;45237;-74
2022/09/21 02:26:42;;;;;;;1.27;1.00;;;18.40;46.50;;;;;;5068062;28;45230;-74
2022/09/21 02:29:16;;;;;;;3.80;0.90;;;18.40;46.40;;;;;;5068012;28;45206;-74
2022/09/21 02:31:47;;;;;;;1.20;1.05;;;18.40;46.40;;;;;;5068285;28;45174;-74
2022/09/21 02:34:18;;;;;;;0.90;0.82;;;18.40;46.50;;;;;;5067724;28;46396;-74
2022/09/21 02:36:48;;;;;;;1.65;0.93;;;18.40;46.50;;;;;;5050531;28;45315;-74
2022/09/21 02:39:17;;;;;;;1.48;1.00;;;18.40;46.50;;;;;;5047749;28;45235;-74
2022/09/21 02:41:51;;;;;;;1.27;1.00;;;18.40;46.50;;;;;;5047766;28;45382;-74
2022/09/21 02:44:19;;;;;;;0.95;0.95;;;18.40;46.50;;;;;;5047378;28;47271;-74
2022/09/21 02:46:48;;;;;;;1.00;0.88;;;18.30;46.40;;;;;;5047220;28;45344;-74
2022/09/21 02:49:18;;;;;;;1.08;1.02;;;18.30;46.50;;;;;;5047540;28;45250;-74
2022/09/21 02:51:47;;;;;;;1.40;0.90;;;18.30;46.50;;;;;;5047449;28;45584;-74
2022/09/21 02:54:15;;;;;;;1.23;1.00;;;18.30;46.50;;;;;;5047231;28;47340;-74
2022/09/21 02:56:42;;;;;;;0.93;0.80;;;18.30;46.50;;;;;;5047039;28;45195;-74
2022/09/21 02:59:09;;;;;;;1.98;1.20;;;18.30;46.60;;;;;;5046706;28;45131;-74
2022/09/21 03:01:36;;;;;;;0.90;0.90;;;18.20;46.60;;;;;;5047556;28;45374;-74
2022/09/21 03:04:03;;;;;;;1.10;0.85;;;18.30;46.70;;;;;;5047187;28;47286;-74
2022/09/21 03:06:30;;;;;;;1.08;1.00;;;18.20;46.60;;;;;;5047162;28;45235;-74
2022/09/21 03:08:58;;;;;;;1.83;0.90;;;18.20;46.60;;;;;;5047319;28;45349;-74
2022/09/21 03:11:25;;;;;;;1.08;0.90;;;18.20;46.70;;;;;;5047015;28;45305;-74
2022/09/21 03:13:52;;;;;;;1.45;0.77;;;18.20;46.70;;;;;;5046868;28;46354;-74
2022/09/21 03:16:19;;;;;;;1.10;1.00;;;18.20;46.80;;;;;;5046917;28;45218;-74
2022/09/21 03:18:45;;;;;;;0.98;0.90;;;18.10;46.70;;;;;;5047141;28;45250;-74
2022/09/21 03:21:12;;;;;;;0.82;0.80;;;18.20;46.70;;;;;;5047151;28;45472;-74
2022/09/21 03:23:39;;;;;;;1.50;0.70;;;18.10;46.70;;;;;;5066907;28;46418;-74
2022/09/21 03:26:08;;;;;;;1.13;0.90;;;18.10;46.70;;;;;;5067113;28;45381;-74
2022/09/21 03:28:34;;;;;;;1.48;0.98;;;18.10;46.80;;;;;;5067200;28;45296;-74
2022/09/21 03:31:01;;;;;;;0.85;0.80;;;18.10;46.80;;;;;;5067451;28;45274;-74
2022/09/21 03:33:28;;;;;;;1.00;0.90;;;18.10;46.80;;;;;;5066908;28;46353;-75
2022/09/21 03:35:55;;;;;;;1.17;1.00;;;18.10;46.70;;;;;;5054318;28;45461;-75
2022/09/21 03:38:21;;;;;;;0.88;0.85;;;18.10;46.80;;;;;;5046914;28;45299;-74
2022/09/21 03:40:48;;;;;;;1.05;0.88;;;18.10;46.80;;;;;;5046320;28;45367;-74
2022/09/21 03:43:17;;;;;;;0.82;0.73;;;18.00;46.70;;;;;;5046446;28;45217;-74
2022/09/21 03:45:44;;;;;;;0.88;0.88;;;18.00;46.70;;;;;;5046513;28;45199;-74
2022/09/21 03:48:11;;;;;;;0.93;0.85;;;18.00;46.80;;;;;;5045788;28;45357;-74
2022/09/21 03:50:38;;;;;;;1.50;0.80;;;18.00;46.80;;;;;;5046707;28;45293;-74
2022/09/21 03:53:05;;;;;;;0.90;0.90;;;18.00;46.80;;;;;;5046348;28;46336;-75
2022/09/21 03:55:32;;;;;;;1.17;0.88;;;17.90;46.80;;;;;;5046392;28;45283;-75
2022/09/21 03:57:59;;;;;;;1.02;0.90;;;17.90;46.80;;;;;;5046476;28;45248;-74
2022/09/21 04:00:27;;;;;;;0.68;0.68;;;17.90;47.40;;;;;;5046522;28;45309;-74
2022/09/21 04:02:54;;;;;;;1.40;0.93;;;17.90;46.80;;;;;;5046197;28;45549;-74
2022/09/21 04:05:21;;;;;;;1.40;0.80;;;17.90;46.80;;;;;;5046246;28;45215;-75
2022/09/21 04:07:48;;;;;;;1.00;0.90;;;17.90;46.90;;;;;;5046375;28;45175;-75
2022/09/21 04:10:16;;;;;;;1.80;0.85;;;17.90;46.90;;;;;;5046263;28;45122;-74
2022/09/21 04:12:43;;;;;;;1.77;0.90;;;17.80;46.80;;;;;;5046216;28;45507;-73
2022/09/21 04:15:10;;;;;;;1.48;0.90;;;17.80;46.80;;;;;;5046053;28;45362;-74
2022/09/21 04:17:39;;;;;;;1.58;0.80;;;17.80;46.80;;;;;;5046542;28;45246;-74
2022/09/21 04:20:07;;;;;;;2.55;0.95;;;17.80;46.80;;;;;;5046315;28;45326;-74
2022/09/21 04:22:35;;;;;;;2.05;0.98;;;17.80;46.90;;;;;;5057206;28;47392;-74
2022/09/21 04:25:02;;;;;;;1.35;1.02;;;17.80;46.90;;;;;;5066392;28;45242;-74
2022/09/21 04:27:29;;;;;;;0.88;0.88;;;17.70;46.80;;;;;;5065746;28;45250;-74
2022/09/21 04:29:56;;;;;;;0.80;0.80;;;17.70;46.90;;;;;;5066387;28;45442;-74
2022/09/21 04:32:23;;;;;;;0.98;0.90;;;17.70;46.90;;;;;;5066117;28;46500;-74
2022/09/21 04:34:51;;;;;;;1.00;0.90;;;17.70;46.90;;;;;;5065945;28;45319;-74
2022/09/21 04:37:18;;;;;;;1.17;0.65;;;17.70;46.90;;;;;;5066282;28;45233;-74
2022/09/21 04:39:45;;;;;;;1.75;1.00;;;17.70;46.90;;;;;;5066385;28;45349;-74
2022/09/21 04:42:12;;;;;;;0.90;0.80;;;17.70;46.90;;;;;;5065839;28;45490;-74
2022/09/21 04:44:38;;;;;;;0.98;0.77;;;17.70;47.00;;;;;;5065547;28;45437;-74
2022/09/21 04:47:05;;;;;;;1.10;0.90;;;17.60;47.00;;;;;;5065917;28;45297;-74
2022/09/21 04:49:32;;;;;;;0.95;0.80;;;17.60;46.90;;;;;;5065772;28;45405;-74
2022/09/21 04:52:01;;;;;;;1.58;1.00;;;17.60;46.90;;;;;;5065862;28;46712;-74
2022/09/21 04:54:28;;;;;;;1.75;0.90;;;17.60;46.90;;;;;;5065595;28;45277;-74
2022/09/21 04:56:55;;;;;;;1.27;1.10;;;17.60;47.00;;;;;;5065878;28;45383;-74
2022/09/21 04:59:22;;;;;;;2.35;1.00;;;17.60;47.00;;;;;;5067578;28;45538;-74
2022/09/21 05:01:49;;;;;;;0.80;0.80;;;17.50;47.00;;;;;;5069082;28;46468;-75
2022/09/21 05:04:16;;;;;;;1.00;1.00;;;17.50;47.00;;;;;;5069422;28;45134;-73
2022/09/21 05:06:43;;;;;;;1.10;1.00;;;17.50;46.90;;;;;;5069247;28;45339;-74
2022/09/21 05:11:55;;;;;;;1.52;1.00;;;17.50;47.00;;;;;;5068565;28;45822;-74
2022/09/21 05:14:22;;;;;;;0.80;0.80;;;17.50;47.00;;;;;;5068525;28;45243;-73
2022/09/21 05:16:49;;;;;;;2.05;0.70;;;17.50;47.00;;;;;;5068491;28;45231;-74
2022/09/21 05:19:16;;;;;;;1.23;1.13;;;17.50;47.00;;;;;;5066538;28;45190;-74
2022/09/21 05:21:42;;;;;;;1.30;1.02;;;17.40;47.00;;;;;;5064762;28;47327;-74
2022/09/21 05:24:11;;;;;;;0.80;0.80;;;17.40;47.00;;;;;;5064843;28;45324;-74
2022/09/21 05:26:37;;;;;;;1.65;1.10;;;17.40;47.00;;;;;;5068867;28;45190;-73
2022/09/21 05:29:05;;;;;;;1.25;1.08;;;17.40;47.00;;;;;;5068918;28;45222;-74
2022/09/21 05:31:38;;;;;;;1.75;1.13;;;17.40;47.00;;;;;;5068581;28;45230;-74
2022/09/21 05:34:08;;;;;;;1.55;1.20;;;17.40;47.00;;;;;;5068461;28;45192;-74
2022/09/21 05:36:41;;;;;;;1.42;1.10;;;17.40;47.00;;;;;;5068727;28;45341;-74
2022/09/21 05:39:09;;;;;;;1.95;1.13;;;17.40;47.00;;;;;;5068750;28;45473;-74
2022/09/21 05:41:38;;;;;;;1.30;1.17;;;17.30;46.90;;;;;;5068515;28;45460;-76
2022/09/21 05:44:05;;;;;;;1.20;1.10;;;17.30;47.00;;;;;;5068412;28;45188;-74
2022/09/21 05:46:37;;;;;;;1.23;1.13;;;17.30;47.00;;;;;;5068621;28;45332;-74
2022/09/21 05:49:05;;;;;;;1.05;0.90;;;17.30;47.00;;;;;;5068686;28;45453;-74
2022/09/21 05:51:35;;;;;;;1.10;1.00;;;17.30;47.00;;;;;;5068378;28;45221;-73
2022/09/21 05:54:03;;;;;;;1.25;1.15;;;17.30;47.00;;;;;;5068208;28;45308;-74
2022/09/21 05:56:37;;;;;;;1.48;1.00;;;17.30;47.00;;;;;;5068269;28;45192;-75
2022/09/21 05:59:12;;;;;;;2.08;1.17;;;17.20;47.00;;;;;;5068692;28;45145;-74
2022/09/21 06:01:45;;;;;;;1.55;1.20;;;17.20;47.00;;;;;;5068026;28;45296;-74
2022/09/21 06:04:12;;;;;;;1.10;1.00;;;17.20;47.00;;;;;;5068414;28;45243;-74
2022/09/21 06:06:39;;;;;;;1.33;1.10;;;17.20;46.90;;;;;;5068535;28;45265;-76
2022/09/21 06:09:06;;;;;;;2.42;1.30;;;17.20;47.00;;;;;;5068761;28;45181;-73
2022/09/21 06:11:33;;;;;;;3.33;1.40;;;17.20;47.40;;;;;;5081528;28;45228;-75
2022/09/21 06:14:02;;;;;;;3.88;2.50;;;17.20;47.40;;;;;;5087892;28;45345;-73
2022/09/21 06:16:37;;;;;;;6.93;4.38;;;17.20;47.40;;;;;;5088166;28;45203;-73
2022/09/21 06:19:03;;;;;;;5.38;3.53;;;17.20;47.50;;;;;;5088992;28;45337;-74
2022/09/21 06:21:30;;;;;;;4.47;2.83;;;17.30;47.60;;;;;;5086018;28;45696;-74
2022/09/21 06:23:57;;;;;;;7.53;5.50;;;17.30;47.60;;;;;;5068244;28;45255;-74
2022/09/21 06:26:24;;;;;;;11.63;7.18;;;17.40;47.30;;;;;;5068164;28;45304;-73
2022/09/21 06:28:51;;;;;;;8.52;5.60;;;17.40;47.30;;;;;;5068214;28;45283;-70
2022/09/21 06:31:19;;;;;;;11.02;9.45;;;17.50;47.20;;;;;;5068153;28;45470;-75
2022/09/21 06:33:46;;;;;;;11.68;8.45;;;17.50;47.00;;;;;;5067959;28;45143;-75
2022/09/21 06:36:13;;;;;;;20.73;7.68;;;17.50;46.90;;;;;;5080531;28;45317;-74
2022/09/21 06:38:40;;;;;;;20.30;9.95;;;17.50;47.20;;;;;;5088496;28;45410;-75
2022/09/21 06:41:07;;;;;;;8.98;5.30;;;17.50;47.40;;;;;;5088346;28;47290;-74
2022/09/21 06:43:34;;;;;;;15.07;4.93;;;17.60;47.00;;;;;;5087969;28;45126;-74
2022/09/21 06:46:01;;;;;;;5.60;4.28;;;17.60;46.80;;;;;;5088049;28;45303;-74
2022/09/21 06:48:30;;;;;;;6.25;4.10;;;17.60;46.80;;;;;;5088205;28;45286;-74
2022/09/21 06:50:58;;;;;;;7.53;4.10;;;17.60;46.70;;;;;;5087804;28;46409;-74
2022/09/21 06:53:25;;;;;;;5.40;3.63;;;17.60;46.70;;;;;;5087552;28;45184;-74
2022/09/21 06:55:52;;;;;;;4.93;3.58;;;17.50;46.80;;;;;;5087717;28;45147;-74
2022/09/21 06:58:19;;;;;;;5.53;3.65;;;17.50;46.80;;;;;;5087933;28;45341;-74
2022/09/21 07:00:45;;;;;;;7.93;3.50;;;17.50;46.90;;;;;;5086877;28;45477;-74
2022/09/21 07:03:13;;;;;;;4.35;3.10;;;17.50;46.90;;;;;;5087617;28;45348;-74
2022/09/21 07:05:41;;;;;;;4.15;3.20;;;17.50;46.90;;;;;;5088066;28;45221;-74
2022/09/21 07:08:07;;;;;;;4.45;3.40;;;17.50;46.90;;;;;;5087414;28;45209;-74
2022/09/21 07:10:34;;;;;;;4.43;3.10;;;17.50;46.80;;;;;;5087158;28;45726;-74
2022/09/21 07:13:02;;;;;;;3.30;3.00;;;17.40;46.80;;;;;;5087576;28;45304;-74
2022/09/21 07:15:30;;;;;;;5.65;3.17;;;17.40;46.90;;;;;;5087340;28;45265;-74
2022/09/21 07:17:56;;;;;;;5.38;3.25;;;17.40;46.80;;;;;;5087837;28;45142;-74
2022/09/21 07:20:23;;;;;;;5.03;3.30;;;17.40;46.80;;;;;;5087277;28;46276;-74
2022/09/21 07:22:51;;;;;;;4.65;2.97;;;17.40;46.80;;;;;;5072788;28;45320;-75
2022/09/21 07:25:18;;;;;;;4.78;2.80;;;17.40;46.90;;;;;;5067296;28;45159;-74
2022/09/21 07:27:47;;;;;;;4.47;2.78;;;17.40;47.00;;;;;;5067043;28;45139;-74
2022/09/21 07:30:13;;;;;;;6.32;3.00;;;17.30;47.00;;;;;;5066537;28;45503;-74
2022/09/21 07:32:40;;;;;;;7.88;3.58;;;17.30;47.00;;;;;;5066688;28;45351;-74
2022/09/21 07:35:08;;;;;;;3.92;2.70;;;17.30;47.00;;;;;;5070558;28;45407;-74
2022/09/21 07:37:35;;;;;;;3.95;3.00;;;17.30;47.00;;;;;;5087425;28;45190;-74
2022/09/21 07:40:04;;;;;;;3.13;2.38;;;17.40;47.30;;;;;;5087111;28;45327;-73
2022/09/21 07:42:31;;;;;;;3.17;2.63;;;17.40;47.80;;;;;;5086891;28;45272;-75
2022/09/21 07:44:58;;;;;;;2.75;2.38;;;17.40;48.10;;;;;;5086546;28;45232;-73
2022/09/21 07:47:26;;;;;;;3.75;2.20;;;17.40;48.40;;;;;;5086784;28;45119;-73
2022/09/21 07:49:54;;;;;;;2.45;2.25;;;17.30;48.60;;;;;;5086801;28;46377;-73
2022/09/21 07:52:21;;;;;;;7.18;2.15;;;17.30;48.40;;;;;;5086782;28;45313;-72
2022/09/21 07:54:48;;;;;;;3.33;1.88;;;17.30;48.30;;;;;;5087059;28;45208;-73
2022/09/21 08:00:01;;;;;;;3.08;2.00;;;17.30;48.50;;;;;;5084195;28;45824;-73
2022/09/21 08:02:28;;;;;;;2.70;1.85;;;17.30;48.50;;;;;;5086408;28;45143;-72
2022/09/21 08:04:54;;;;;;;4.53;2.30;;;17.30;48.70;;;;;;5086431;28;45294;-73
2022/09/21 08:07:22;;;;;;;3.80;2.45;;;17.30;48.60;;;;;;5086765;28;45400;-72
2022/09/21 08:09:50;;;;;;;2.45;2.00;;;17.30;48.70;;;;;;5086445;28;46425;-72
2022/09/21 08:12:19;;;;;;;6.40;1.90;;;17.30;48.80;;;;;;5086651;28;45142;-73
2022/09/21 08:14:46;;;;;;;3.67;2.20;;;17.30;48.90;;;;;;5086467;28;45288;-73
2022/09/21 08:17:13;;;;;;;3.72;2.42;;;17.30;49.00;;;;;;5086902;28;45458;-73
2022/09/21 08:19:40;;;;;;;3.10;2.25;;;17.30;49.20;;;;;;5086360;28;47819;-73
2022/09/21 08:22:07;;;;;;;3.75;2.38;;;17.30;49.00;;;;;;5079436;28;45209;-73
2022/09/21 08:24:34;;;;;;;3.67;1.90;;;17.40;49.00;;;;;;5066236;28;45308;-74
2022/09/21 08:27:01;;;;;;;3.22;2.40;;;17.40;49.50;;;;;;5066131;28;45265;-72
2022/09/21 08:29:29;;;;;;;2.88;2.13;;;17.40;48.80;;;;;;5065960;28;46467;-73
2022/09/21 08:31:56;;;;;;;3.03;2.17;;;17.40;48.90;;;;;;5065853;28;45214;-73
2022/09/21 08:34:23;;;;;;;3.75;2.10;;;17.40;48.80;;;;;;5067688;28;45240;-72
2022/09/21 08:36:50;;;;;;;2.45;2.05;;;17.40;48.90;;;;;;5069155;28;45275;-73
2022/09/21 08:39:17;;;;;;;3.92;2.38;;;17.40;49.00;;;;;;5069626;28;45426;-73
2022/09/21 08:41:52;;;;;;;2.63;1.85;;;17.50;49.10;;;;;;5069503;28;45170;-73
2022/09/21 08:44:20;;;;;;;2.15;1.75;;;17.40;48.90;;;;;;5069470;28;45301;-73
2022/09/21 08:46:58;;;;;;;2.60;1.90;;;17.50;49.00;;;;;;5069807;28;45185;-73
2022/09/21 08:49:25;;;;;;;3.17;2.15;;;17.50;48.90;;;;;;5069778;28;46403;-74
2022/09/21 08:51:54;;;;;;;2.50;1.90;;;17.50;48.80;;;;;;5062544;28;45465;-73
2022/09/21 08:54:25;;;;;;;3.22;1.95;;;17.50;48.80;;;;;;5063149;28;45274;-73
2022/09/21 08:56:52;;;;;;;2.80;1.92;;;17.50;49.40;;;;;;5055407;28;45381;-74
2022/09/21 08:59:19;;;;;;;3.00;2.03;;;17.50;48.70;;;;;;5052932;28;45392;-73
2022/09/21 09:01:54;;;;;;;3.70;1.90;;;17.50;48.70;;;;;;5053499;28;45144;-74
2022/09/21 09:04:28;;;;;;;2.58;1.60;;;17.60;48.80;;;;;;5061720;28;45210;-74
2022/09/21 09:07:02;;;;;;;2.25;1.90;;;17.60;49.20;;;;;;5063251;28;45182;-74
2022/09/21 09:09:44;;;;;;;3.75;2.08;;;17.60;48.60;;;;;;5052184;28;46367;-74
2022/09/21 09:12:18;;;;;;;2.08;1.88;;;17.60;48.60;;;;;;5063666;28;45420;-73
2022/09/21 09:14:58;;;;;;;2.80;1.88;;;17.60;48.40;;;;;;5068958;28;45249;-72
2022/09/21 09:17:33;;;;;;;3.03;1.77;;;17.70;48.60;;;;;;5065941;28;45417;-74
2022/09/21 09:20:01;;;;;;;2.55;1.90;;;17.70;48.50;;;;;;5068950;28;47326;-74
2022/09/21 09:22:30;;;;;;;2.22;1.90;;;17.70;48.50;;;;;;5068654;28;45464;-74
2022/09/21 09:24:58;;;;;;;2.03;1.67;;;17.70;48.40;;;;;;5068902;28;45331;-74
2022/09/21 09:27:27;;;;;;;2.13;1.70;;;17.70;48.40;;;;;;5067197;28;45565;-73
2022/09/21 09:29:56;;;;;;;4.57;2.08;;;17.80;48.40;;;;;;5049435;28;45251;-74
2022/09/21 09:32:25;;;;;;;1.80;1.70;;;17.80;48.50;;;;;;5048517;28;45321;-74
2022/09/21 09:34:55;;;;;;;3.38;1.80;;;17.80;48.50;;;;;;5055940;28;45438;-74
2022/09/21 09:37:24;;;;;;;2.17;1.63;;;17.90;48.50;;;;;;5060300;28;45395;-74
2022/09/21 09:39:54;;;;;;;2.92;2.10;;;17.90;48.60;;;;;;5068793;28;45239;-74
2022/09/21 09:42:35;;;;;;;2.95;1.73;;;17.90;48.60;;;;;;5065286;28;45252;-72
2022/09/21 09:45:10;;;;;;;3.60;2.00;;;18.00;48.40;;;;;;5068098;28;45328;-73
2022/09/21 09:47:44;;;;;;;2.60;1.80;;;18.00;48.40;;;;;;5070137;28;45344;-73
2022/09/21 09:50:19;;;;;;;1.70;1.60;;;18.00;48.50;;;;;;5068159;28;45387;-73
2022/09/21 09:52:46;;;;;;;3.25;1.85;;;18.10;48.40;;;;;;5073670;28;45291;-73
2022/09/21 09:55:16;;;;;;;3.67;2.13;;;18.10;48.40;;;;;;5070982;28;45385;-73
2022/09/21 09:57:43;;;;;;;2.25;1.70;;;18.10;48.30;;;;;;5068449;28;45392;-74
2022/09/21 10:00:13;;;;;;;4.35;1.98;;;18.20;48.30;;;;;;5068209;28;46473;-74
2022/09/21 10:02:46;;;;;;;1.98;1.60;;;18.20;48.30;;;;;;5066612;28;45306;-73
2022/09/21 10:05:20;;;;;;;2.00;1.70;;;18.20;48.70;;;;;;5067779;28;45455;-73
2022/09/21 10:07:47;;;;;;;2.95;1.70;;;18.20;48.20;;;;;;5067253;28;45178;-74
2022/09/21 10:10:34;;;;;;;3.10;1.77;;;18.30;48.30;;;;;;5067918;28;46816;-72
2022/09/21 10:13:12;;;;;;;2.55;1.52;;;18.30;48.60;;;;;;5067584;28;45420;-72
2022/09/21 10:15:44;;;;;;;3.08;1.55;;;18.30;48.50;;;;;;5051384;28;45316;-73
2022/09/21 10:18:17;;;;;;;2.97;1.85;;;18.40;48.40;;;;;;5065993;28;45511;-76
2022/09/21 10:20:53;;;;;;;3.72;1.65;;;18.50;48.50;;;;;;5072515;28;46414;-74
2022/09/21 10:23:19;;;;;;;2.28;1.80;;;18.60;49.00;;;;;;5065335;28;45361;-71
2022/09/21 10:26:00;;;;;;;2.88;2.33;;;18.60;48.40;;;;;;5057951;28;45431;-73
2022/09/21 10:28:27;;;;;;;4.72;2.05;;;18.70;48.60;;;;;;5068959;28;45345;-72
2022/09/21 10:31:12;;;;;;;5.93;2.35;;;18.80;48.20;;;;;;5065455;28;45480;-74
2022/09/21 10:33:47;;;;;;;2.47;1.90;;;18.90;48.10;;;;;;5051527;28;45328;-76
2022/09/21 10:36:25;;;;;;;4.13;2.10;;;18.90;48.10;;;;;;5067357;28;45254;-74
2022/09/21 10:38:52;;;;;;;8.60;4.93;;;19.00;48.10;;;;;;5056277;28;45396;-72
2022/09/21 10:41:19;;;;;;;6.35;5.70;;;19.10;48.00;;;;;;5066013;28;45887;-73
2022/09/21 10:43:46;;;;;;;4.38;2.90;;;19.10;48.00;;;;;;5067802;28;45198;-72
2022/09/21 10:46:13;;;;;;;5.10;3.47;;;19.20;47.80;;;;;;5066140;28;45246;-75
2022/09/21 10:48:40;;;;;;;8.98;7.32;;;19.30;47.80;;;;;;5065378;28;45470;-74
2022/09/21 10:51:07;;;;;;;7.65;4.50;;;19.40;48.10;;;;;;5067104;28;45472;-73
2022/09/21 10:53:36;;;;;;;5.78;3.67;;;19.50;47.60;;;;;;5055116;28;45496;-74
2022/09/21 10:56:04;;;;;;;4.05;3.03;;;19.60;47.20;;;;;;5067135;28;45119;-76
2022/09/21 10:58:31;;;;;;;4.15;3.40;;;19.60;47.00;;;;;;5067434;28;45340;-75
2022/09/21 11:01:10;;;;;;;5.93;5.38;;;19.70;47.10;;;;;;5066771;28;46432;-74
2022/09/21 11:03:47;;;;;;;6.53;3.45;;;19.80;47.30;;;;;;5050603;28;45275;-73
2022/09/21 11:06:17;;;;;;;4.78;3.00;;;19.90;46.70;;;;;;5066895;28;45338;-76
2022/09/21 11:08:49;;;;;;;3.78;3.47;;;20.00;46.30;;;;;;5067008;28;45468;-74
2022/09/21 11:11:51;;;;;;;4.88;3.03;;;20.10;47.50;;;;;;5067904;28;45548;-71
2022/09/21 11:14:25;;;;;;;3.53;3.00;;;20.20;46.30;;;;;;4994154;28;45200;-75
2022/09/21 11:16:56;;;;;;;4.90;2.83;;;20.20;46.40;;;;;;4998628;28;45200;-76
2022/09/21 11:19:33;;;;;;;7.32;5.70;;;20.30;46.10;;;;;;5019747;28;45384;-75
2022/09/21 11:22:04;;;;;;;5.78;4.63;;;20.40;46.40;;;;;;5066562;28;46250;-73
2022/09/21 11:24:39;;;;;;;4.32;2.92;;;20.50;46.70;;;;;;5058274;28;45301;-74
2022/09/21 11:27:07;;;;;;;4.18;3.00;;;20.60;46.00;;;;;;5066898;28;45212;-76
2022/09/21 11:29:37;;;;;;;6.80;5.50;;;20.60;45.80;;;;;;5064171;28;45372;-75
2022/09/21 11:32:10;;;;;;;5.00;4.50;;;20.70;45.90;;;;;;5054167;28;46386;-78
2022/09/21 11:35:16;;;;;;;3.50;3.20;;;20.80;45.90;;;;;;5066213;28;45205;-76
2022/09/21 11:37:51;;;;;;;4.43;3.92;;;20.90;45.20;;;;;;5042093;28;45493;-72
2022/09/21 11:40:38;;;;;;;4.20;3.40;;;21.00;45.30;;;;;;5066152;28;45266;-71
2022/09/21 11:43:19;;;;;;;7.72;4.53;;;21.00;45.00;;;;;;5065894;28;46199;-74
2022/09/21 11:45:57;;;;;;;13.13;6.47;;;21.10;45.00;;;;;;5067356;28;45285;-75
2022/09/21 11:48:30;;;;;;;4.55;3.65;;;21.00;44.60;;;;;;5065482;28;45272;-73
2022/09/21 11:51:04;;;;;;;8.68;5.95;;;21.10;44.50;;;;;;5057120;28;45432;-75
2022/09/21 11:53:39;;;;;;;4.38;3.80;;;21.20;44.70;;;;;;5066098;28;47307;-73
2022/09/21 11:56:20;;;;;;;7.65;4.82;;;21.20;44.20;;;;;;5066142;28;45312;-74
2022/09/21 11:58:51;;;;;;;8.70;7.60;;;21.20;44.10;;;;;;5065983;28;45274;-73
2022/09/21 12:01:27;;;;;;;12.27;5.55;;;21.30;45.00;;;;;;5066421;28;45397;-76
2022/09/21 12:04:06;;;;;;;7.75;4.63;;;21.30;43.90;;;;;;5061558;28;45274;-75
2022/09/21 12:06:42;;;;;;;6.70;5.35;;;21.40;44.60;;;;;;5057333;28;46312;-72
2022/09/21 12:09:32;;;;;;;6.97;5.10;;;21.60;44.70;;;;;;5065433;28;45313;-74
2022/09/21 12:12:03;;;;;;;12.82;9.60;;;21.60;43.70;;;;;;5065848;28;45468;-74
2022/09/21 12:14:33;;;;;;;8.25;6.53;;;21.60;44.40;;;;;;5065612;28;45418;-72
2022/09/21 12:17:02;;;;;;;6.50;5.65;;;21.70;43.70;;;;;;5066029;28;45431;-73
2022/09/21 12:19:33;;;;;;;14.50;7.60;;;21.80;43.90;;;;;;5063219;28;45308;-72
2022/09/21 12:22:02;;;;;;;10.00;6.38;;;21.90;42.90;;;;;;5064766;28;45328;-73
2022/09/21 12:24:30;;;;;;;8.90;6.50;;;21.90;42.80;;;;;;5063936;28;47016;-73
2022/09/21 12:27:01;;;;;;;8.23;7.30;;;22.00;43.10;;;;;;5050133;28;45430;-74
2022/09/21 12:29:30;;;;;;;7.15;5.80;;;22.10;43.40;;;;;;5064850;28;45191;-75
2022/09/21 12:32:01;;;;;;;13.65;6.47;;;22.10;42.50;;;;;;5064906;28;45392;-73
2022/09/21 12:34:30;;;;;;;8.63;6.05;;;22.10;42.20;;;;;;5063567;28;46820;-71
2022/09/21 12:37:02;;;;;;;8.32;5.90;;;22.20;42.10;;;;;;5065285;28;45371;-73
2022/09/21 12:39:31;;;;;;;4.75;3.97;;;22.20;41.70;;;;;;5065029;28;45356;-76
2022/09/21 12:42:02;;;;;;;7.55;4.82;;;22.10;40.80;;;;;;5057312;28;45419;-73
2022/09/21 12:44:50;;;;;;;7.90;4.63;;;22.20;41.30;;;;;;5064068;28;46397;-74
2022/09/21 12:47:19;;;;;;;6.72;4.15;;;22.20;41.10;;;;;;5064980;28;45245;-76
2022/09/21 12:49:47;;;;;;;6.70;2.90;;;22.20;41.20;;;;;;5065413;28;45217;-74
2022/09/21 12:52:19;;;;;;;4.35;3.05;;;22.20;40.60;;;;;;5064339;28;45420;-74
2022/09/21 12:54:48;;;;;;;3.72;3.25;;;22.10;40.50;;;;;;5065045;28;46497;-74
2022/09/21 12:57:23;;;;;;;5.03;3.95;;;22.10;40.80;;;;;;5064129;28;45345;-75
2022/09/21 12:59:53;;;;;;;5.00;4.47;;;22.10;40.80;;;;;;5065211;28;45269;-75
2022/09/21 13:02:22;;;;;;;5.43;4.45;;;22.10;40.70;;;;;;5065497;28;45174;-75
2022/09/21 13:04:59;;;;;;;6.13;3.90;;;22.10;40.90;;;;;;5059881;28;47291;-74